createdAt,value
2023-05-13T00:00:13.551Z,6.18
2023-05-13T00:02:15.130Z,6.53
2023-05-13T00:04:16.688Z,6.07
2023-05-13T00:06:18.361Z,6.20
2023-05-13T00:08:20.189Z,6.25
2023-05-13T00:10:22.094Z,6.18
2023-05-13T00:12:23.818Z,5.80
2023-05-13T00:14:25.473Z,5.88
2023-05-13T00:16:28.774Z,6.20
2023-05-13T00:18:30.499Z,6.50
2023-05-13T00:20:32.100Z,6.65
2023-05-13T00:22:33.634Z,6.18
2023-05-13T00:24:35.253Z,6.40
2023-05-13T00:26:36.736Z,6.57
2023-05-13T00:28:38.382Z,6.78
2023-05-13T00:30:42.157Z,6.68
2023-05-13T00:32:43.718Z,6.38
2023-05-13T00:34:45.376Z,6.57
2023-05-13T00:36:47.026Z,6.53
2023-05-13T00:38:48.544Z,7.13
2023-05-13T00:40:50.345Z,7.22
2023-05-13T00:42:52.175Z,6.95
2023-05-13T00:44:53.706Z,7.10
2023-05-13T00:46:55.384Z,6.93
2023-05-13T00:48:56.950Z,6.80
2023-05-13T00:50:59.420Z,6.75
2023-05-13T00:53:03.008Z,6.75
2023-05-13T00:55:05.548Z,6.50
2023-05-13T00:57:07.069Z,6.72
2023-05-13T00:59:08.663Z,6.65
2023-05-13T01:01:22.189Z,6.97
2023-05-13T01:03:33.935Z,7.38
2023-05-13T01:05:55.192Z,7.00
2023-05-13T01:08:05.752Z,6.60
2023-05-13T01:10:13.114Z,6.90
2023-05-13T01:12:26.560Z,7.00
2023-05-13T01:14:36.988Z,7.00
2023-05-13T01:16:51.783Z,7.28
2023-05-13T01:18:58.713Z,6.68
2023-05-13T01:23:04.181Z,6.50
2023-05-13T01:25:06.115Z,6.13
2023-05-13T01:27:07.909Z,5.95
2023-05-13T01:29:09.491Z,5.75
2023-05-13T01:31:12.265Z,5.40
2023-05-13T01:33:15.618Z,6.25
2023-05-13T01:35:18.169Z,6.30
2023-05-13T01:37:20.857Z,6.05
2023-05-13T01:39:24.333Z,6.43
2023-05-13T01:41:26.579Z,6.53
2023-05-13T01:43:28.302Z,6.80
2023-05-13T01:45:30.607Z,6.40
2023-05-13T01:47:32.332Z,6.85
2023-05-13T01:49:33.912Z,6.63
2023-05-13T01:51:36.722Z,6.30
2023-05-13T01:53:38.458Z,6.38
2023-05-13T01:55:40.047Z,6.55
2023-05-13T01:57:41.570Z,6.80
2023-05-13T01:59:43.169Z,6.28
2023-05-13T02:01:45.799Z,7.05
2023-05-13T02:03:47.575Z,6.00
2023-05-13T02:05:49.192Z,6.00
2023-05-13T02:07:51.263Z,6.10
2023-05-13T02:09:59.532Z,6.55
2023-05-13T02:12:01.290Z,6.18
2023-05-13T02:14:02.833Z,6.15
2023-05-13T02:16:04.698Z,6.20
2023-05-13T02:18:06.411Z,6.72
2023-05-13T02:20:09.122Z,6.38
2023-05-13T02:22:10.751Z,6.43
2023-05-13T02:24:13.890Z,5.82
2023-05-13T02:26:15.425Z,5.82
2023-05-13T02:28:17.076Z,5.88
2023-05-13T02:30:18.705Z,5.72
2023-05-13T02:32:20.242Z,6.32
2023-05-13T02:34:21.787Z,6.22
2023-05-13T02:36:23.359Z,6.32
2023-05-13T02:38:24.945Z,6.28
2023-05-13T02:40:26.473Z,5.82
2023-05-13T02:42:28.081Z,6.25
2023-05-13T02:44:29.605Z,6.32
2023-05-13T02:46:31.434Z,6.32
2023-05-13T02:48:33.080Z,6.47
2023-05-13T02:50:34.612Z,6.20
2023-05-13T02:52:37.136Z,5.78
2023-05-13T02:54:38.715Z,6.10
2023-05-13T02:56:40.282Z,6.55
2023-05-13T02:58:41.944Z,5.93
2023-05-13T03:00:43.471Z,6.43
2023-05-13T03:02:45.121Z,7.10
2023-05-13T03:04:47.361Z,6.85
2023-05-13T03:06:49.591Z,6.88
2023-05-13T03:08:51.362Z,6.15
2023-05-13T03:10:52.939Z,6.78
2023-05-13T03:12:54.481Z,6.40
2023-05-13T03:14:56.194Z,6.53
2023-05-13T03:16:57.760Z,6.30
2023-05-13T03:18:59.378Z,6.65
2023-05-13T03:21:01.245Z,6.20
2023-05-13T03:23:02.943Z,6.45
2023-05-13T03:25:06.043Z,7.18
2023-05-13T03:27:07.623Z,5.72
2023-05-13T03:29:09.173Z,6.68
2023-05-13T03:31:10.806Z,6.15
2023-05-13T03:33:12.428Z,6.10
2023-05-13T03:35:13.976Z,5.30
2023-05-13T03:37:15.504Z,5.47
2023-05-13T03:39:17.058Z,5.13
2023-05-13T03:41:18.726Z,5.03
2023-05-13T03:43:20.348Z,5.00
2023-05-13T03:45:21.897Z,5.57
2023-05-13T03:47:23.978Z,5.57
2023-05-13T03:49:25.515Z,4.93
2023-05-13T03:51:27.027Z,5.18
2023-05-13T03:53:28.608Z,5.40
2023-05-13T03:55:30.382Z,5.35
2023-05-13T03:57:31.786Z,5.05
2023-05-13T03:59:33.291Z,5.70
2023-05-13T04:01:36.037Z,4.63
2023-05-13T04:03:37.670Z,5.50
2023-05-13T04:05:39.250Z,6.22
2023-05-13T04:07:41.396Z,6.25
2023-05-13T04:09:43.051Z,6.15
2023-05-13T04:11:44.658Z,5.80
2023-05-13T04:13:46.283Z,6.10
2023-05-13T04:15:48.414Z,5.68
2023-05-13T04:17:50.070Z,6.22
2023-05-13T04:19:55.008Z,6.07
2023-05-13T04:21:56.806Z,6.30
2023-05-13T04:23:58.348Z,5.88
2023-05-13T04:26:00.765Z,6.00
2023-05-13T04:28:02.341Z,6.40
2023-05-13T04:30:04.236Z,6.40
2023-05-13T04:32:06.007Z,5.72
2023-05-13T04:34:07.592Z,5.68
2023-05-13T04:36:09.300Z,6.18
2023-05-13T04:38:10.958Z,6.15
2023-05-13T04:40:12.843Z,5.88
2023-05-13T04:42:15.126Z,5.65
2023-05-13T04:44:16.690Z,6.65
2023-05-13T04:46:18.323Z,6.13
2023-05-13T04:48:19.903Z,5.93
2023-05-13T04:50:24.393Z,6.25
2023-05-13T04:52:26.334Z,5.88
2023-05-13T04:54:27.964Z,6.15
2023-05-13T04:56:29.542Z,6.05
2023-05-13T04:58:31.059Z,5.90
2023-05-13T05:00:32.821Z,6.20
2023-05-13T05:02:34.384Z,5.90
2023-05-13T05:04:35.956Z,6.30
2023-05-13T05:06:37.450Z,6.25
2023-05-13T05:08:38.982Z,6.00
2023-05-13T05:10:40.696Z,6.45
2023-05-13T05:12:42.481Z,6.13
2023-05-13T05:14:45.372Z,5.78
2023-05-13T05:16:46.990Z,5.50
2023-05-13T05:18:48.655Z,5.32
2023-05-13T05:20:50.376Z,5.43
2023-05-13T05:22:52.455Z,5.30
2023-05-13T05:24:54.017Z,5.57
2023-05-13T05:26:56.801Z,5.32
2023-05-13T05:28:58.373Z,5.53
2023-05-13T05:31:01.785Z,6.00
2023-05-13T05:33:07.799Z,6.03
2023-05-13T05:35:09.728Z,6.00
2023-05-13T05:37:11.311Z,5.80
2023-05-13T05:39:12.935Z,6.32
2023-05-13T05:41:14.512Z,6.10
2023-05-13T05:43:16.544Z,5.63
2023-05-13T05:45:18.121Z,6.38
2023-05-13T05:47:19.684Z,6.18
2023-05-13T05:49:21.235Z,6.82
2023-05-13T05:51:22.879Z,7.43
2023-05-13T05:53:24.509Z,7.22
2023-05-13T05:55:28.482Z,6.72
2023-05-13T05:57:29.994Z,6.45
2023-05-13T05:59:31.516Z,7.45
2023-05-13T06:01:36.502Z,6.35
2023-05-13T06:03:38.376Z,6.93
2023-05-13T06:05:40.187Z,7.55
2023-05-13T06:07:41.773Z,7.20
2023-05-13T06:09:43.357Z,7.03
2023-05-13T06:11:44.927Z,7.70
2023-05-13T06:13:47.583Z,7.95
2023-05-13T06:15:49.168Z,8.38
2023-05-13T06:17:50.719Z,7.55
2023-05-13T06:19:52.264Z,8.95
2023-05-13T06:21:53.801Z,8.13
2023-05-13T06:23:55.339Z,8.00
2023-05-13T06:25:58.669Z,8.52
2023-05-13T06:28:02.343Z,9.27
2023-05-13T06:30:05.388Z,9.27
2023-05-13T06:32:07.458Z,9.85
2023-05-13T06:34:09.021Z,10.35
2023-05-13T06:36:10.678Z,12.43
2023-05-13T06:38:13.250Z,11.88
2023-05-13T06:40:14.893Z,13.40
2023-05-13T06:42:16.432Z,12.40
2023-05-13T06:44:17.989Z,12.85
2023-05-13T06:46:19.600Z,13.52
2023-05-13T06:48:21.120Z,11.57
2023-05-13T06:50:22.868Z,11.15
2023-05-13T06:52:24.583Z,11.45
2023-05-13T06:54:27.625Z,11.35
2023-05-13T06:56:30.341Z,10.43
2023-05-13T06:58:31.928Z,11.32
2023-05-13T07:00:33.495Z,11.18
2023-05-13T07:02:35.011Z,11.20
2023-05-13T07:04:37.085Z,11.35
2023-05-13T07:06:38.695Z,11.18
2023-05-13T07:08:40.874Z,10.75
2023-05-13T07:10:42.412Z,9.57
2023-05-13T07:12:43.978Z,10.75
2023-05-13T07:14:45.503Z,10.93
2023-05-13T07:16:47.036Z,10.40
2023-05-13T07:18:48.615Z,10.27
2023-05-13T07:20:50.177Z,10.48
2023-05-13T07:22:51.990Z,10.23
2023-05-13T07:24:53.863Z,10.32
2023-05-13T07:26:55.507Z,11.60
2023-05-13T07:28:57.166Z,11.45
2023-05-13T07:30:58.939Z,11.73
2023-05-13T07:33:00.646Z,12.38
2023-05-13T07:35:02.375Z,13.00
2023-05-13T07:37:04.550Z,12.15
2023-05-13T07:39:08.723Z,11.50
2023-05-13T07:41:10.312Z,10.73
2023-05-13T07:43:13.527Z,10.32
2023-05-13T07:45:15.069Z,10.70
2023-05-13T07:47:16.707Z,11.20
2023-05-13T07:49:18.373Z,10.27
2023-05-13T07:51:19.901Z,9.63
2023-05-13T07:53:21.442Z,9.20
2023-05-13T07:55:23.448Z,9.20
2023-05-13T07:57:25.157Z,10.13
2023-05-13T07:59:26.701Z,10.38
2023-05-13T08:01:29.041Z,10.73
2023-05-13T08:03:31.080Z,9.82
2023-05-13T08:05:32.804Z,9.98
2023-05-13T08:07:34.369Z,10.43
2023-05-13T08:09:35.891Z,9.40
2023-05-13T08:11:37.567Z,9.52
2023-05-13T08:13:39.603Z,8.68
2023-05-13T08:15:41.220Z,8.52
2023-05-13T08:17:42.904Z,8.63
2023-05-13T08:19:44.922Z,7.93
2023-05-13T08:21:46.501Z,8.05
2023-05-13T08:23:51.214Z,8.20
2023-05-13T08:25:52.722Z,8.15
2023-05-13T08:27:54.312Z,7.97
2023-05-13T08:29:55.825Z,8.25
2023-05-13T08:31:57.644Z,8.02
2023-05-13T08:33:59.291Z,7.10
2023-05-13T08:36:01.066Z,7.97
2023-05-13T08:38:05.399Z,6.97
2023-05-13T08:40:08.275Z,8.13
2023-05-13T08:42:11.566Z,7.35
2023-05-13T08:44:13.694Z,7.05
2023-05-13T08:46:17.126Z,7.47
2023-05-13T08:48:19.961Z,6.68
2023-05-13T08:50:22.535Z,6.47
2023-05-13T08:52:24.255Z,6.38
2023-05-13T08:54:26.809Z,6.78
2023-05-13T08:56:29.800Z,6.97
2023-05-13T08:58:31.817Z,6.30
2023-05-13T09:00:35.075Z,6.07
2023-05-13T09:02:36.706Z,6.60
2023-05-13T09:04:42.234Z,6.20
2023-05-13T09:06:43.873Z,6.15
2023-05-13T09:08:45.507Z,6.10
2023-05-13T09:10:47.398Z,5.72
2023-05-13T09:12:52.608Z,6.60
2023-05-13T09:14:54.156Z,5.78
2023-05-13T09:16:59.136Z,5.88
2023-05-13T09:19:06.233Z,6.07
2023-05-13T09:21:23.666Z,6.13
2023-05-13T09:23:25.305Z,6.10
2023-05-13T09:25:28.141Z,5.43
2023-05-13T09:27:44.632Z,5.47
2023-05-13T09:29:49.689Z,5.57
2023-05-13T09:31:58.149Z,5.68
2023-05-13T09:33:59.690Z,5.30
2023-05-13T09:36:04.166Z,4.50
2023-05-13T09:38:14.032Z,4.88
2023-05-13T09:40:17.142Z,5.18
2023-05-13T09:42:19.581Z,4.40
2023-05-13T09:44:22.439Z,4.60
2023-05-13T09:46:25.400Z,4.45
2023-05-13T09:48:28.454Z,4.80
2023-05-13T09:50:31.689Z,4.50
2023-05-13T09:52:34.463Z,4.05
2023-05-13T09:54:39.054Z,4.57
2023-05-13T09:56:40.622Z,4.40
2023-05-13T09:58:52.542Z,4.70
2023-05-13T10:00:54.860Z,4.30
2023-05-13T10:02:56.677Z,4.82
2023-05-13T10:04:59.006Z,4.40
2023-05-13T10:07:03.535Z,4.80
2023-05-13T10:09:09.324Z,4.95
2023-05-13T10:11:12.625Z,4.88
2023-05-13T10:13:16.730Z,4.85
2023-05-13T10:15:19.055Z,5.45
2023-05-13T10:17:25.406Z,4.43
2023-05-13T10:19:27.452Z,4.80
2023-05-13T10:21:28.961Z,4.78
2023-05-13T10:23:32.669Z,5.40
2023-05-13T10:25:34.280Z,5.10
2023-05-13T10:27:35.871Z,4.68
2023-05-13T10:29:38.872Z,5.25
2023-05-13T10:31:41.084Z,4.93
2023-05-13T10:33:42.808Z,5.20
2023-05-13T10:35:59.490Z,5.10
2023-05-13T10:38:07.604Z,4.15
2023-05-13T10:40:25.827Z,4.50
2023-05-13T10:42:50.315Z,4.20
2023-05-13T10:44:55.487Z,3.95
2023-05-13T10:46:57.268Z,4.32
2023-05-13T10:48:59.720Z,4.63
2023-05-13T10:51:05.636Z,4.30
2023-05-13T10:53:19.913Z,4.57
2023-05-13T10:55:21.814Z,4.10
2023-05-13T10:57:35.630Z,3.97
2023-05-13T10:59:38.825Z,3.92
2023-05-13T11:01:45.937Z,4.10
2023-05-13T11:03:54.740Z,3.70
2023-05-13T11:06:13.892Z,3.88
2023-05-13T11:08:41.803Z,3.85
2023-05-13T11:10:43.419Z,3.33
2023-05-13T11:13:09.065Z,3.80
2023-05-13T11:17:47.486Z,3.83
2023-05-13T11:19:51.320Z,4.00
2023-05-13T11:21:56.381Z,3.60
2023-05-13T11:24:01.679Z,3.22
2023-05-13T11:26:16.183Z,3.50
2023-05-13T11:28:20.805Z,3.05
2023-05-13T11:30:28.554Z,3.33
2023-05-13T11:32:58.881Z,3.90
2023-05-13T11:35:00.763Z,3.35
2023-05-13T11:37:05.151Z,3.80
2023-05-13T11:39:11.984Z,3.33
2023-05-13T11:41:14.207Z,3.13
2023-05-13T11:43:20.690Z,3.40
2023-05-13T11:47:27.362Z,3.08
2023-05-13T11:49:33.525Z,3.38
2023-05-13T11:51:35.140Z,3.25
2023-05-13T11:53:36.953Z,2.60
2023-05-13T11:55:38.525Z,3.10
2023-05-13T11:57:42.067Z,3.38
2023-05-13T12:00:00.735Z,2.85
2023-05-13T12:02:02.683Z,2.72
2023-05-13T12:04:04.454Z,3.45
2023-05-13T12:06:06.121Z,3.08
2023-05-13T12:08:11.945Z,2.58
2023-05-13T12:10:13.585Z,2.90
2023-05-13T12:12:16.492Z,3.00
2023-05-13T12:14:19.159Z,3.08
2023-05-13T12:16:20.849Z,3.13
2023-05-13T12:18:22.430Z,3.00
2023-05-13T12:20:24.612Z,2.67
2023-05-13T12:22:26.281Z,2.85
2023-05-13T12:24:34.029Z,2.60
2023-05-13T12:26:35.588Z,3.08
2023-05-13T12:28:37.181Z,2.78
2023-05-13T12:30:41.222Z,3.10
2023-05-13T12:32:47.162Z,2.80
2023-05-13T12:34:50.618Z,3.08
2023-05-13T12:36:52.866Z,2.95
2023-05-13T12:39:02.577Z,2.83
2023-05-13T12:41:12.368Z,2.92
2023-05-13T12:43:15.757Z,2.63
2023-05-13T12:45:17.455Z,2.72
2023-05-13T12:47:20.183Z,2.45
2023-05-13T12:49:22.510Z,2.55
2023-05-13T12:51:24.809Z,2.65
2023-05-13T12:53:26.440Z,2.63
2023-05-13T12:55:28.185Z,2.65
2023-05-13T12:57:31.561Z,2.58
2023-05-13T12:59:34.721Z,2.45
2023-05-13T13:01:37.246Z,2.35
2023-05-13T13:03:38.993Z,2.45
2023-05-13T13:05:40.648Z,2.42
2023-05-13T13:07:42.381Z,2.30
2023-05-13T13:09:43.975Z,2.30
2023-05-13T13:11:45.520Z,2.42
2023-05-13T13:13:48.072Z,2.75
2023-05-13T13:15:49.592Z,3.05
2023-05-13T13:17:51.173Z,2.50
2023-05-13T13:19:52.754Z,2.50
2023-05-13T13:21:54.262Z,2.85
2023-05-13T13:23:55.804Z,2.80
2023-05-13T13:25:59.252Z,2.60
2023-05-13T13:28:00.975Z,2.60
2023-05-13T13:30:02.830Z,2.80
2023-05-13T13:32:04.794Z,2.80
2023-05-13T13:34:06.431Z,2.50
2023-05-13T13:36:08.162Z,2.58
2023-05-13T13:38:09.995Z,2.53
2023-05-13T13:40:12.935Z,2.70
2023-05-13T13:42:14.464Z,2.63
2023-05-13T13:44:16.101Z,2.95
2023-05-13T13:46:17.857Z,2.95
2023-05-13T13:48:19.470Z,2.70
2023-05-13T13:50:21.347Z,2.85
2023-05-13T13:52:24.561Z,2.92
2023-05-13T13:54:26.191Z,2.67
2023-05-13T13:56:27.791Z,2.65
2023-05-13T13:58:29.312Z,2.55
2023-05-13T14:00:31.380Z,2.80
2023-05-13T14:02:33.156Z,3.22
2023-05-13T14:04:36.036Z,2.85
2023-05-13T14:06:39.047Z,2.80
2023-05-13T14:08:40.561Z,3.20
2023-05-13T14:10:42.093Z,3.00
2023-05-13T14:12:43.587Z,3.10
2023-05-13T14:14:45.190Z,3.17
2023-05-13T14:16:46.822Z,3.00
2023-05-13T14:18:48.821Z,2.85
2023-05-13T14:20:50.561Z,2.97
2023-05-13T14:22:52.132Z,2.42
2023-05-13T14:24:53.982Z,2.88
2023-05-13T14:26:55.673Z,2.67
2023-05-13T14:28:57.204Z,3.10
2023-05-13T14:30:58.740Z,2.70
2023-05-13T14:33:00.761Z,2.72
2023-05-13T14:35:02.462Z,2.85
2023-05-13T14:37:04.164Z,3.22
2023-05-13T14:39:05.754Z,3.05
2023-05-13T14:41:07.379Z,2.80
2023-05-13T14:43:08.959Z,2.75
2023-05-13T14:45:14.530Z,2.78
2023-05-13T14:47:17.650Z,2.65
2023-05-13T14:49:19.167Z,2.70
2023-05-13T14:51:21.095Z,2.47
2023-05-13T14:53:22.620Z,2.63
2023-05-13T14:55:24.170Z,2.38
2023-05-13T14:57:25.841Z,2.55
2023-05-13T14:59:29.305Z,2.20
2023-05-13T15:01:30.964Z,2.40
2023-05-13T15:03:32.737Z,2.60
2023-05-13T15:05:34.391Z,2.65
2023-05-13T15:07:36.176Z,2.30
2023-05-13T15:09:37.767Z,2.50
2023-05-13T15:11:42.181Z,2.22
2023-05-13T15:13:43.906Z,2.22
2023-05-13T15:15:46.119Z,2.65
2023-05-13T15:17:47.789Z,2.22
2023-05-13T15:19:49.389Z,2.40
2023-05-13T15:21:51.064Z,2.33
2023-05-13T15:23:52.602Z,2.70
2023-05-13T15:25:54.249Z,2.67
2023-05-13T15:27:55.777Z,2.58
2023-05-13T15:29:57.795Z,2.22
2023-05-13T15:31:59.460Z,2.50
2023-05-13T15:34:02.396Z,2.63
2023-05-13T15:36:05.666Z,2.38
2023-05-13T15:38:07.222Z,2.70
2023-05-13T15:40:09.167Z,2.45
2023-05-13T15:42:12.101Z,2.53
2023-05-13T15:44:13.702Z,2.30
2023-05-13T15:46:15.335Z,2.70
2023-05-13T15:48:17.403Z,2.70
2023-05-13T15:50:19.102Z,2.60
2023-05-13T15:52:20.965Z,2.75
2023-05-13T15:54:22.476Z,2.83
2023-05-13T15:56:25.087Z,2.47
2023-05-13T15:58:26.612Z,2.40
2023-05-13T16:00:28.180Z,2.80
2023-05-13T16:02:36.561Z,2.80
2023-05-13T16:04:38.288Z,2.80
2023-05-13T16:06:39.982Z,2.67
2023-05-13T16:08:41.519Z,2.55
2023-05-13T16:10:43.139Z,2.72
2023-05-13T16:12:44.646Z,2.38
2023-05-13T16:14:46.470Z,2.50
2023-05-13T16:16:48.079Z,2.50
2023-05-13T16:18:49.902Z,2.50
2023-05-13T16:20:52.366Z,2.47
2023-05-13T16:22:53.992Z,2.35
2023-05-13T16:24:59.939Z,2.60
2023-05-13T16:27:01.504Z,2.67
2023-05-13T16:29:03.241Z,2.50
2023-05-13T16:31:04.802Z,2.38
2023-05-13T16:33:08.053Z,2.55
2023-05-13T16:35:11.823Z,2.22
2023-05-13T16:37:13.414Z,2.22
2023-05-13T16:39:14.939Z,2.70
2023-05-13T16:41:16.473Z,2.35
2023-05-13T16:43:18.174Z,2.30
2023-05-13T16:45:19.912Z,2.20
2023-05-13T16:47:21.976Z,2.30
2023-05-13T16:49:23.536Z,2.28
2023-05-13T16:51:25.292Z,2.20
2023-05-13T16:53:26.840Z,2.10
2023-05-13T16:55:28.368Z,1.80
2023-05-13T16:57:30.074Z,1.73
2023-05-13T16:59:32.393Z,1.52
2023-05-13T17:01:33.910Z,1.98
2023-05-13T17:03:35.663Z,1.90
2023-05-13T17:05:37.389Z,1.63
2023-05-13T17:07:39.098Z,1.50
2023-05-13T17:09:40.837Z,1.60
2023-05-13T17:11:42.695Z,1.90
2023-05-13T17:13:44.411Z,2.30
2023-05-13T17:15:46.822Z,2.25
2023-05-13T17:17:48.359Z,2.05
2023-05-13T17:19:50.101Z,2.00
2023-05-13T17:21:51.637Z,1.83
2023-05-13T17:23:53.836Z,1.95
2023-05-13T17:25:55.596Z,1.90
2023-05-13T17:27:57.441Z,2.08
2023-05-13T17:29:59.284Z,2.33
2023-05-13T17:32:00.846Z,1.95
2023-05-13T17:34:02.375Z,1.73
2023-05-13T17:36:04.539Z,1.77
2023-05-13T17:38:06.177Z,2.17
2023-05-13T17:40:08.290Z,2.00
2023-05-13T17:42:09.877Z,2.08
2023-05-13T17:44:11.779Z,2.15
2023-05-13T17:46:13.315Z,1.83
2023-05-13T17:48:14.991Z,2.28
2023-05-13T17:50:18.275Z,2.40
2023-05-13T17:52:20.027Z,2.05
2023-05-13T17:54:21.595Z,2.40
2023-05-13T17:56:23.171Z,2.22
2023-05-13T17:58:27.477Z,2.40
2023-05-13T18:00:29.016Z,2.22
2023-05-13T18:02:30.566Z,2.35
2023-05-13T18:04:32.233Z,2.60
2023-05-13T18:06:33.799Z,2.70
2023-05-13T18:08:36.179Z,2.80
2023-05-13T18:10:37.808Z,2.58
2023-05-13T18:12:39.533Z,2.38
2023-05-13T18:14:41.557Z,2.30
2023-05-13T18:16:43.342Z,2.60
2023-05-13T18:18:45.107Z,2.50
2023-05-13T18:20:46.738Z,2.33
2023-05-13T18:22:48.363Z,2.40
2023-05-13T18:24:49.896Z,2.33
2023-05-13T18:26:51.500Z,2.60
2023-05-13T18:28:53.022Z,2.40
2023-05-13T18:30:54.843Z,2.42
2023-05-13T18:32:56.447Z,2.40
2023-05-13T18:34:58.035Z,2.40
2023-05-13T18:36:59.723Z,2.40
2023-05-13T18:39:01.394Z,2.60
2023-05-13T18:41:03.662Z,2.65
2023-05-13T18:43:05.274Z,3.10
2023-05-13T18:45:07.922Z,2.58
2023-05-13T18:47:09.503Z,2.80
2023-05-13T18:49:11.441Z,2.78
2023-05-13T18:51:14.376Z,2.90
2023-05-13T18:53:16.168Z,2.58
2023-05-13T18:55:18.177Z,3.10
2023-05-13T18:57:20.748Z,2.90
2023-05-13T18:59:22.389Z,3.30
2023-05-13T19:01:24.709Z,2.70
2023-05-13T19:03:27.010Z,2.80
2023-05-13T19:05:28.771Z,2.80
2023-05-13T19:07:30.272Z,2.80
2023-05-13T19:09:33.387Z,3.30
2023-05-13T19:11:34.945Z,3.22
2023-05-13T19:13:46.879Z,3.15
2023-05-13T19:15:49.171Z,2.88
2023-05-13T19:17:52.174Z,3.22
2023-05-13T19:19:53.781Z,2.88
2023-05-13T19:21:55.342Z,2.95
2023-05-13T19:23:58.578Z,2.97
2023-05-13T19:26:00.254Z,2.83
2023-05-13T19:28:02.579Z,3.00
2023-05-13T19:30:04.687Z,3.05
2023-05-13T19:32:06.378Z,2.80
2023-05-13T19:34:08.209Z,2.88
2023-05-13T19:36:10.042Z,3.22
2023-05-13T19:38:11.560Z,2.97
2023-05-13T19:40:13.179Z,2.67
2023-05-13T19:42:15.070Z,2.75
2023-05-13T19:44:17.433Z,2.70
2023-05-13T19:46:19.146Z,3.10
2023-05-13T19:48:20.852Z,2.83
2023-05-13T19:50:22.552Z,2.80
2023-05-13T19:52:24.357Z,2.80
2023-05-13T19:54:26.039Z,3.20
2023-05-13T19:56:28.014Z,2.90
2023-05-13T19:58:29.593Z,2.95
2023-05-13T20:00:31.212Z,2.90
2023-05-13T20:02:32.858Z,3.13
2023-05-13T20:04:34.483Z,2.92
2023-05-13T20:06:36.709Z,3.15
2023-05-13T20:08:38.506Z,3.30
2023-05-13T20:10:40.595Z,3.38
2023-05-13T20:12:42.113Z,3.13
2023-05-13T20:14:46.060Z,3.60
2023-05-13T20:16:47.633Z,3.70
2023-05-13T20:18:49.503Z,4.15
2023-05-13T20:20:51.608Z,4.13
2023-05-13T20:22:53.143Z,4.53
2023-05-13T20:24:54.713Z,5.22
2023-05-13T20:26:56.281Z,5.07
2023-05-13T20:28:58.647Z,4.88
2023-05-13T20:31:03.005Z,3.60
2023-05-13T20:33:04.601Z,3.72
2023-05-13T20:35:07.560Z,3.30
2023-05-13T20:37:09.123Z,3.33
2023-05-13T20:39:10.781Z,3.30
2023-05-13T20:41:12.356Z,3.30
2023-05-13T20:43:16.872Z,3.13
2023-05-13T20:45:18.527Z,3.13
2023-05-13T20:47:20.797Z,3.00
2023-05-13T20:49:22.354Z,3.38
2023-05-13T20:51:23.870Z,3.20
2023-05-13T20:53:25.401Z,3.78
2023-05-13T20:55:27.207Z,3.50
2023-05-13T20:57:30.658Z,3.90
2023-05-13T20:59:32.294Z,3.40
2023-05-13T21:01:35.089Z,3.97
2023-05-13T21:03:36.705Z,3.45
2023-05-13T21:05:38.267Z,3.60
2023-05-13T21:07:39.878Z,4.20
2023-05-13T21:09:41.446Z,4.40
2023-05-13T21:11:43.297Z,5.45
2023-05-13T21:13:44.853Z,4.70
2023-05-13T21:15:46.429Z,4.30
2023-05-13T21:17:48.085Z,4.47
2023-05-13T21:19:49.981Z,4.57
2023-05-13T21:21:51.637Z,6.28
2023-05-13T21:23:53.189Z,5.65
2023-05-13T21:25:54.697Z,5.63
2023-05-13T21:27:56.232Z,7.88
2023-05-13T21:29:57.780Z,8.55
2023-05-13T21:31:59.325Z,8.15
2023-05-13T21:34:00.844Z,9.63
2023-05-13T21:36:02.344Z,9.05
2023-05-13T21:38:11.348Z,8.48
2023-05-13T21:40:14.381Z,9.70
2023-05-13T21:42:15.914Z,8.80
2023-05-13T21:44:17.463Z,7.60
2023-05-13T21:46:18.977Z,7.00
2023-05-13T21:48:21.000Z,6.90
2023-05-13T21:50:22.775Z,6.65
2023-05-13T21:52:24.740Z,6.75
2023-05-13T21:54:26.300Z,5.68
2023-05-13T21:56:27.828Z,5.60
2023-05-13T21:58:29.367Z,6.05
2023-05-13T22:00:35.113Z,6.05
2023-05-13T22:02:36.682Z,6.20
2023-05-13T22:04:38.295Z,6.10
2023-05-13T22:06:39.845Z,6.00
2023-05-13T22:08:41.393Z,6.00
2023-05-13T22:10:42.977Z,6.70
2023-05-13T22:12:44.473Z,6.65
2023-05-13T22:14:46.081Z,7.18
2023-05-13T22:16:57.514Z,7.07
2023-05-13T22:19:09.054Z,8.20
2023-05-13T22:21:10.679Z,7.90
2023-05-13T22:23:12.430Z,7.65
2023-05-13T22:25:14.021Z,7.47
2023-05-13T22:27:15.566Z,7.65
2023-05-13T22:29:17.141Z,6.95
2023-05-13T22:31:18.902Z,7.20
2023-05-13T22:33:20.566Z,7.43
2023-05-13T22:35:22.289Z,7.25
2023-05-13T22:37:23.817Z,7.40
2023-05-13T22:39:26.337Z,7.53
2023-05-13T22:41:27.896Z,6.90
2023-05-13T22:43:29.421Z,6.65
2023-05-13T22:45:31.106Z,6.88
2023-05-13T22:47:32.707Z,5.85
2023-05-13T22:49:34.801Z,6.00
2023-05-13T22:51:36.362Z,7.18
2023-05-13T22:53:37.910Z,6.03
2023-05-13T22:55:39.444Z,6.55
2023-05-13T22:57:40.958Z,6.05
2023-05-13T22:59:42.479Z,6.78
2023-05-13T23:01:44.239Z,6.15
2023-05-13T23:03:45.796Z,6.03
2023-05-13T23:05:47.359Z,5.85
2023-05-13T23:07:48.932Z,6.47
2023-05-13T23:09:50.552Z,6.45
2023-05-13T23:11:52.102Z,5.88
2023-05-13T23:13:53.821Z,6.80
2023-05-13T23:15:55.441Z,6.25
2023-05-13T23:17:57.170Z,6.25
2023-05-13T23:19:58.726Z,6.07
2023-05-13T23:22:00.278Z,6.22
2023-05-13T23:24:02.140Z,6.25
2023-05-13T23:26:05.753Z,6.60
2023-05-13T23:28:07.343Z,7.20
2023-05-13T23:30:09.410Z,6.82
2023-05-13T23:32:10.996Z,6.00
2023-05-13T23:34:12.584Z,7.03
2023-05-13T23:36:16.061Z,6.85
2023-05-13T23:38:17.585Z,6.30
2023-05-13T23:40:19.284Z,6.68
2023-05-13T23:42:21.768Z,6.47
2023-05-13T23:44:23.373Z,6.82
2023-05-13T23:46:24.945Z,6.53
2023-05-13T23:48:28.326Z,6.57
2023-05-13T23:50:30.012Z,6.80
2023-05-13T23:52:31.644Z,6.55
2023-05-13T23:54:33.202Z,6.28
2023-05-13T23:56:35.124Z,6.53
2023-05-13T23:58:36.657Z,6.35
